Time;durP1;ratioP1;P1;durP2;ratioP2;P2;SDS_P1;SDS_P2;PMS_P1;PMS_P2;Temp;Humidity;BMP_temperature;BMP_pressure;BME280_temperature;BME280_humidity;BME280_pressure;Samples;Min_cycle;Max_cycle;Signal;HPM_P1;HPM_P2
2022/01/31 00:01:45;;;;;;;9.38;3.22;;;;;;;;;;5007154;28;20480;-77
2022/01/31 00:04:10;;;;;;;12.68;3.65;;;;;;;;;;5008098;28;20337;-77
2022/01/31 00:06:35;;;;;;;12.32;3.85;;;;;;;;;;5010087;28;20080;-76
2022/01/31 00:09:01;;;;;;;11.13;3.88;;;;;;;;;;5014249;28;20052;-76
2022/01/31 00:11:26;;;;;;;14.65;4.03;;;;;;;;;;5010481;28;20041;-76
2022/01/31 00:14:20;;;;;;;11.73;3.58;;;;;;;;;;5011998;28;20034;-77
2022/01/31 00:16:39;;;;;;;8.25;3.22;;;;;;;;;;5012070;28;20083;-75
2022/01/31 00:19:04;;;;;;;11.30;4.00;;;;;;;;;;5016030;28;20625;-77
2022/01/31 00:21:30;;;;;;;12.98;3.83;;;;;;;;;;5011996;28;20042;-76
2022/01/31 00:23:55;;;;;;;10.90;3.33;;;;;;;;;;5026832;28;20400;-76
2022/01/31 00:26:20;;;;;;;13.63;3.92;;;;;;;;;;5011677;28;20026;-75
2022/01/31 00:28:45;;;;;;;12.48;3.83;;;;;;;;;;5010026;28;20453;-75
2022/01/31 00:31:10;;;;;;;12.13;3.25;;;;;;;;;;5010789;28;20553;-76
2022/01/31 00:33:36;;;;;;;12.13;3.40;;;;;;;;;;5011691;28;20026;-76
2022/01/31 00:36:01;;;;;;;12.05;3.53;;;;;;;;;;5011917;28;20053;-76
2022/01/31 00:38:26;;;;;;;8.52;2.90;;;;;;;;;;5011373;28;20056;-78
2022/01/31 00:40:51;;;;;;;11.60;3.65;;;;;;;;;;5010718;28;20033;-76
2022/01/31 00:43:19;;;;;;;12.85;3.38;;;;;;;;;;5010800;28;20044;-77
2022/01/31 00:45:56;;;;;;;15.23;3.72;;;;;;;;;;5011233;28;20053;-77
2022/01/31 00:48:25;;;;;;;12.18;4.20;;;;;;;;;;5004972;28;20396;-76
2022/01/31 00:50:50;;;;;;;11.27;3.70;;;;;;;;;;5010859;28;20018;-75
2022/01/31 00:53:15;;;;;;;14.00;3.67;;;;;;;;;;5011810;28;20107;-76
2022/01/31 00:55:40;;;;;;;8.95;3.28;;;;;;;;;;5013241;28;20021;-76
2022/01/31 00:58:06;;;;;;;13.73;3.65;;;;;;;;;;5011107;28;20081;-76
2022/01/31 01:00:31;;;;;;;15.23;3.97;;;;;;;;;;5011484;28;20022;-79
2022/01/31 01:02:56;;;;;;;13.25;3.38;;;;;;;;;;5009981;28;20048;-77
2022/01/31 01:05:21;;;;;;;9.07;3.40;;;;;;;;;;5010307;28;20393;-77
2022/01/31 01:07:46;;;;;;;10.35;3.10;;;;;;;;;;5010203;28;20041;-77
2022/01/31 01:10:16;;;;;;;11.10;3.30;;;;;;;;;;5009888;28;20053;-77
2022/01/31 01:12:42;;;;;;;13.40;3.83;;;;;;;;;;5009027;28;20037;-77
2022/01/31 01:15:07;;;;;;;8.40;3.90;;;;;;;;;;5009927;28;20084;-77
2022/01/31 01:17:32;;;;;;;10.20;3.30;;;;;;;;;;5009434;28;20026;-76
2022/01/31 01:19:58;;;;;;;10.60;3.63;;;;;;;;;;5010304;28;20124;-77
2022/01/31 01:22:23;;;;;;;12.13;3.83;;;;;;;;;;5010012;28;20559;-76
2022/01/31 01:24:48;;;;;;;10.98;3.38;;;;;;;;;;5010261;28;20022;-77
2022/01/31 01:27:18;;;;;;;8.38;3.63;;;;;;;;;;5008595;28;20113;-77
2022/01/31 01:29:45;;;;;;;12.23;3.40;;;;;;;;;;5009131;28;20567;-77
2022/01/31 01:32:10;;;;;;;11.27;3.35;;;;;;;;;;5009965;28;20017;-76
2022/01/31 01:34:36;;;;;;;9.93;3.45;;;;;;;;;;5010203;28;20034;-77
2022/01/31 01:37:03;;;;;;;11.48;3.80;;;;;;;;;;5007479;28;20026;-77
2022/01/31 01:39:28;;;;;;;11.93;3.10;;;;;;;;;;5008355;28;20045;-77
2022/01/31 01:41:53;;;;;;;12.02;3.60;;;;;;;;;;5009536;28;20052;-77
2022/01/31 01:44:18;;;;;;;13.40;3.78;;;;;;;;;;5009290;28;20038;-77
2022/01/31 01:46:43;;;;;;;12.45;3.63;;;;;;;;;;5008314;28;20041;-75
2022/01/31 01:49:09;;;;;;;9.10;3.50;;;;;;;;;;5009409;28;20025;-76
2022/01/31 01:51:34;;;;;;;11.65;3.30;;;;;;;;;;5010268;28;20088;-77
2022/01/31 01:54:00;;;;;;;13.52;4.43;;;;;;;;;;5009255;28;20045;-77
2022/01/31 01:56:27;;;;;;;10.48;4.00;;;;;;;;;;5013006;28;20047;-77
2022/01/31 01:58:52;;;;;;;11.90;3.65;;;;;;;;;;5012015;28;20044;-77
2022/01/31 02:01:18;;;;;;;15.90;4.15;;;;;;;;;;5010654;28;20133;-76
2022/01/31 02:03:43;;;;;;;11.30;3.85;;;;;;;;;;5008133;28;20014;-77
2022/01/31 02:06:09;;;;;;;11.82;3.65;;;;;;;;;;5009422;28;20037;-76
2022/01/31 02:08:42;;;;;;;13.75;3.70;;;;;;;;;;5009048;28;20101;-76
2022/01/31 02:11:08;;;;;;;13.65;4.47;;;;;;;;;;5007401;28;20049;-76
2022/01/31 02:13:34;;;;;;;13.15;3.67;;;;;;;;;;5007783;28;20029;-76
2022/01/31 02:15:59;;;;;;;11.13;3.38;;;;;;;;;;5007898;28;20025;-77
2022/01/31 02:18:28;;;;;;;10.73;3.55;;;;;;;;;;5008929;28;20025;-76
2022/01/31 02:20:53;;;;;;;11.38;4.18;;;;;;;;;;5008495;28;20040;-76
2022/01/31 02:23:18;;;;;;;19.17;4.55;;;;;;;;;;5008542;28;20026;-76
2022/01/31 02:25:54;;;;;;;10.98;4.30;;;;;;;;;;5007898;28;20112;-76
2022/01/31 02:28:21;;;;;;;21.30;5.20;;;;;;;;;;5003575;28;20021;-77
2022/01/31 02:30:46;;;;;;;12.50;3.67;;;;;;;;;;5007074;28;20504;-76
2022/01/31 02:33:11;;;;;;;11.55;3.90;;;;;;;;;;5008332;28;20033;-76
2022/01/31 02:35:36;;;;;;;9.82;3.60;;;;;;;;;;5009028;28;20099;-77
2022/01/31 02:38:02;;;;;;;14.63;4.00;;;;;;;;;;5008668;28;20044;-77
2022/01/31 02:40:27;;;;;;;15.23;4.00;;;;;;;;;;5012490;28;20018;-75
2022/01/31 02:42:53;;;;;;;14.10;3.75;;;;;;;;;;5009663;28;20037;-77
2022/01/31 02:45:18;;;;;;;13.60;4.07;;;;;;;;;;5009376;28;20022;-76
2022/01/31 02:47:51;;;;;;;12.88;4.05;;;;;;;;;;5007707;28;20433;-75
2022/01/31 02:50:16;;;;;;;16.48;4.72;;;;;;;;;;5008398;28;20030;-77
2022/01/31 02:52:47;;;;;;;12.18;3.95;;;;;;;;;;5007636;28;20069;-77
2022/01/31 02:55:12;;;;;;;13.63;3.80;;;;;;;;;;5009949;28;20032;-77
2022/01/31 02:57:37;;;;;;;10.38;3.50;;;;;;;;;;5007999;28;20030;-76
2022/01/31 03:00:03;;;;;;;11.93;3.50;;;;;;;;;;5009184;28;20551;-76
2022/01/31 03:02:28;;;;;;;14.63;5.18;;;;;;;;;;5007798;28;20029;-75
2022/01/31 03:04:55;;;;;;;12.30;4.18;;;;;;;;;;5006557;28;20100;-77
2022/01/31 03:07:20;;;;;;;10.05;4.05;;;;;;;;;;5008028;28;20071;-76
2022/01/31 03:09:45;;;;;;;11.32;3.75;;;;;;;;;;5008574;28;20030;-76
2022/01/31 03:12:10;;;;;;;13.93;3.45;;;;;;;;;;5004760;28;20022;-75
2022/01/31 03:14:35;;;;;;;11.45;3.88;;;;;;;;;;5008460;28;20029;-77
2022/01/31 03:17:04;;;;;;;11.93;3.55;;;;;;;;;;5007979;28;20091;-76
2022/01/31 03:19:29;;;;;;;16.30;4.15;;;;;;;;;;5005329;28;20041;-76
2022/01/31 03:21:54;;;;;;;10.98;4.32;;;;;;;;;;5006676;28;20034;-76
2022/01/31 03:24:19;;;;;;;14.00;3.85;;;;;;;;;;5008098;28;20076;-77
2022/01/31 03:26:45;;;;;;;12.27;4.00;;;;;;;;;;5009494;28;20098;-76
2022/01/31 03:29:10;;;;;;;13.40;3.97;;;;;;;;;;5010502;28;20057;-76
2022/01/31 03:31:35;;;;;;;12.55;3.95;;;;;;;;;;5013176;28;20022;-76
2022/01/31 03:34:00;;;;;;;10.57;3.60;;;;;;;;;;5009549;28;20036;-75
2022/01/31 03:36:25;;;;;;;10.27;3.30;;;;;;;;;;5008337;28;20095;-77
2022/01/31 03:38:51;;;;;;;14.73;4.60;;;;;;;;;;5007089;28;20409;-77
2022/01/31 03:41:20;;;;;;;15.52;4.68;;;;;;;;;;5008703;28;20066;-76
2022/01/31 03:43:46;;;;;;;11.77;3.75;;;;;;;;;;5011911;28;20036;-76
2022/01/31 03:46:11;;;;;;;15.27;4.10;;;;;;;;;;5010398;28;20121;-75
2022/01/31 03:48:36;;;;;;;20.27;4.32;;;;;;;;;;5009003;28;20026;-76
2022/01/31 03:51:02;;;;;;;14.82;3.90;;;;;;;;;;5010900;28;20053;-76
2022/01/31 03:53:29;;;;;;;12.00;3.63;;;;;;;;;;5011296;28;20073;-75
2022/01/31 03:55:54;;;;;;;11.18;3.92;;;;;;;;;;5011378;28;20029;-76
2022/01/31 03:58:19;;;;;;;12.88;3.95;;;;;;;;;;5016497;28;20045;-76
2022/01/31 04:00:45;;;;;;;12.13;4.00;;;;;;;;;;5008082;28;20029;-75
2022/01/31 04:03:10;;;;;;;11.98;4.30;;;;;;;;;;5012573;28;20025;-75
2022/01/31 04:05:37;;;;;;;15.30;4.53;;;;;;;;;;5012076;28;20033;-76
2022/01/31 04:08:02;;;;;;;15.10;3.70;;;;;;;;;;5011496;28;20125;-77
2022/01/31 04:10:27;;;;;;;12.38;4.32;;;;;;;;;;5011521;28;20028;-76
2022/01/31 04:12:53;;;;;;;11.88;3.40;;;;;;;;;;5010287;28;20149;-77
2022/01/31 04:15:18;;;;;;;16.13;4.00;;;;;;;;;;5011627;28;20049;-76
2022/01/31 04:17:44;;;;;;;11.77;4.00;;;;;;;;;;5010758;28;20108;-77
2022/01/31 04:20:09;;;;;;;12.15;3.85;;;;;;;;;;5011492;28;20029;-77
2022/01/31 04:22:39;;;;;;;13.55;4.40;;;;;;;;;;5011479;28;20037;-76
2022/01/31 04:25:06;;;;;;;13.20;4.10;;;;;;;;;;5011547;28;20044;-80
2022/01/31 04:27:44;;;;;;;11.90;3.72;;;;;;;;;;5011301;28;20117;-76
2022/01/31 04:30:12;;;;;;;15.98;4.25;;;;;;;;;;5009951;28;20022;-77
2022/01/31 04:32:37;;;;;;;10.47;3.37;;;;;;;;;;5009700;28;20673;-77
2022/01/31 04:35:03;;;;;;;13.43;3.95;;;;;;;;;;5010505;28;20037;-77
2022/01/31 04:37:28;;;;;;;10.10;3.70;;;;;;;;;;5011082;28;20018;-77
2022/01/31 04:39:53;;;;;;;10.05;3.30;;;;;;;;;;5010766;28;20117;-76
2022/01/31 04:42:18;;;;;;;12.93;3.85;;;;;;;;;;5010005;28;20049;-75
2022/01/31 04:44:44;;;;;;;14.50;4.07;;;;;;;;;;5010843;28;20030;-77
2022/01/31 04:47:09;;;;;;;10.90;3.72;;;;;;;;;;5009693;28;20037;-78
2022/01/31 04:49:35;;;;;;;13.35;4.18;;;;;;;;;;5011432;28;20030;-76
2022/01/31 04:52:00;;;;;;;13.32;3.60;;;;;;;;;;5006065;28;20556;-75
2022/01/31 04:54:26;;;;;;;13.77;3.40;;;;;;;;;;5014286;28;20064;-76
2022/01/31 04:56:51;;;;;;;15.25;4.43;;;;;;;;;;5010500;28;20496;-76
2022/01/31 04:59:17;;;;;;;11.27;3.78;;;;;;;;;;5010176;28;20029;-77
2022/01/31 05:01:43;;;;;;;10.60;3.90;;;;;;;;;;5009695;28;20179;-75
2022/01/31 05:04:08;;;;;;;12.65;4.05;;;;;;;;;;5009898;28;20013;-77
2022/01/31 05:06:37;;;;;;;17.00;4.15;;;;;;;;;;5010195;28;20072;-75
2022/01/31 05:09:03;;;;;;;11.48;3.55;;;;;;;;;;5011042;28;20040;-77
2022/01/31 05:11:28;;;;;;;11.35;4.15;;;;;;;;;;5008117;28;20026;-77
2022/01/31 05:13:53;;;;;;;12.98;3.50;;;;;;;;;;5009233;28;20030;-77
2022/01/31 05:16:18;;;;;;;10.77;4.15;;;;;;;;;;5009541;28;20066;-76
2022/01/31 05:18:44;;;;;;;13.00;4.32;;;;;;;;;;5009859;28;20030;-75
2022/01/31 05:21:09;;;;;;;14.93;4.65;;;;;;;;;;5009761;28;20022;-77
2022/01/31 05:23:34;;;;;;;14.23;5.10;;;;;;;;;;5009235;28;20018;-76
2022/01/31 05:26:00;;;;;;;11.38;4.55;;;;;;;;;;5004097;28;20097;-78
2022/01/31 05:28:25;;;;;;;10.68;4.35;;;;;;;;;;5008987;28;20084;-74
2022/01/31 05:30:50;;;;;;;14.82;5.65;;;;;;;;;;5007959;28;20473;-74
2022/01/31 05:33:15;;;;;;;15.25;5.45;;;;;;;;;;5009750;28;20516;-74
2022/01/31 05:35:41;;;;;;;14.98;5.35;;;;;;;;;;5009016;28;20705;-74
2022/01/31 05:38:06;;;;;;;14.57;6.13;;;;;;;;;;5009815;28;20025;-77
2022/01/31 05:40:31;;;;;;;13.13;4.90;;;;;;;;;;5010470;28;20033;-75
2022/01/31 05:42:58;;;;;;;12.43;4.53;;;;;;;;;;5008923;28;20914;-74
2022/01/31 05:45:23;;;;;;;13.27;4.97;;;;;;;;;;5010386;28;20030;-74
2022/01/31 05:47:48;;;;;;;20.23;5.53;;;;;;;;;;5007321;28;20030;-74
2022/01/31 05:50:14;;;;;;;16.13;5.88;;;;;;;;;;5007580;28;20041;-76
2022/01/31 05:52:39;;;;;;;15.65;6.57;;;;;;;;;;5007618;28;20073;-75
2022/01/31 05:55:04;;;;;;;16.20;5.97;;;;;;;;;;5009320;28;20032;-74
2022/01/31 05:57:32;;;;;;;11.30;6.18;;;;;;;;;;5006430;28;20030;-74
2022/01/31 05:59:58;;;;;;;14.85;6.60;;;;;;;;;;5013926;28;20020;-72
2022/01/31 06:02:23;;;;;;;16.23;6.65;;;;;;;;;;5008730;28;20025;-76
2022/01/31 06:04:48;;;;;;;16.70;6.98;;;;;;;;;;5010664;28;20120;-78
2022/01/31 06:07:13;;;;;;;11.95;6.45;;;;;;;;;;5012088;28;20433;-79
2022/01/31 06:09:38;;;;;;;15.32;6.70;;;;;;;;;;5009317;28;20084;-78
2022/01/31 06:12:04;;;;;;;13.82;6.32;;;;;;;;;;5010140;28;20026;-75
2022/01/31 06:14:30;;;;;;;13.57;6.68;;;;;;;;;;5009753;28;20026;-74
2022/01/31 06:16:55;;;;;;;14.35;5.72;;;;;;;;;;5009528;28;20076;-74
2022/01/31 06:19:21;;;;;;;13.30;5.03;;;;;;;;;;5009583;28;20065;-76
2022/01/31 06:21:47;;;;;;;12.25;5.20;;;;;;;;;;5009508;28;20037;-74
2022/01/31 06:24:14;;;;;;;9.15;4.78;;;;;;;;;;5009228;28;20108;-75
2022/01/31 06:26:40;;;;;;;9.82;4.53;;;;;;;;;;5007290;28;20640;-74
2022/01/31 06:29:05;;;;;;;12.82;4.97;;;;;;;;;;5009420;28;20098;-74
2022/01/31 06:31:32;;;;;;;8.23;4.07;;;;;;;;;;5008488;28;20469;-74
2022/01/31 06:33:57;;;;;;;11.15;4.28;;;;;;;;;;5009507;28;20110;-75
2022/01/31 06:36:23;;;;;;;9.00;3.83;;;;;;;;;;5010930;28;20101;-75
2022/01/31 06:38:50;;;;;;;9.73;3.67;;;;;;;;;;5009119;28;20117;-74
2022/01/31 06:41:17;;;;;;;15.13;3.83;;;;;;;;;;5008715;28;20033;-73
2022/01/31 06:43:45;;;;;;;9.85;3.45;;;;;;;;;;5009126;28;20034;-74
2022/01/31 06:46:10;;;;;;;13.55;3.30;;;;;;;;;;5006747;28;20033;-76
2022/01/31 06:48:36;;;;;;;11.00;3.63;;;;;;;;;;5009118;28;20034;-73
2022/01/31 06:51:01;;;;;;;10.63;2.97;;;;;;;;;;5008447;28;20072;-75
2022/01/31 06:53:28;;;;;;;10.77;3.00;;;;;;;;;;5008379;28;20066;-78
2022/01/31 06:55:54;;;;;;;7.90;3.15;;;;;;;;;;5008385;28;20061;-79
2022/01/31 06:58:19;;;;;;;10.27;3.67;;;;;;;;;;5010611;28;20401;-77
2022/01/31 07:00:45;;;;;;;10.77;3.40;;;;;;;;;;5007914;28;20017;-78
2022/01/31 07:03:13;;;;;;;8.27;3.25;;;;;;;;;;5008270;28;20531;-80
2022/01/31 07:05:38;;;;;;;8.95;3.20;;;;;;;;;;5009484;28;20079;-81
2022/01/31 07:08:03;;;;;;;11.45;3.63;;;;;;;;;;5009644;28;20093;-80
2022/01/31 07:10:28;;;;;;;13.52;3.50;;;;;;;;;;5009666;28;20030;-78
2022/01/31 07:12:56;;;;;;;13.48;3.10;;;;;;;;;;5005885;28;20053;-78
2022/01/31 07:15:21;;;;;;;9.15;3.50;;;;;;;;;;5008184;28;20127;-78
2022/01/31 07:17:46;;;;;;;10.32;3.20;;;;;;;;;;5012437;28;20029;-80
2022/01/31 07:20:20;;;;;;;11.00;3.88;;;;;;;;;;5010165;28;20041;-79
2022/01/31 07:22:51;;;;;;;10.65;3.50;;;;;;;;;;5013200;28;20041;-79
2022/01/31 07:25:35;;;;;;;10.60;3.42;;;;;;;;;;5012613;28;20160;-79
2022/01/31 07:28:29;;;;;;;5.88;2.70;;;;;;;;;;5013029;28;20100;-78
2022/01/31 07:30:54;;;;;;;9.27;3.28;;;;;;;;;;5007283;28;20130;-78
2022/01/31 07:33:20;;;;;;;11.38;3.10;;;;;;;;;;5013326;28;20101;-78
2022/01/31 07:35:49;;;;;;;9.52;3.72;;;;;;;;;;5013060;28;20053;-79
2022/01/31 07:38:14;;;;;;;8.52;2.83;;;;;;;;;;5013295;28;20057;-78
2022/01/31 07:40:39;;;;;;;7.60;3.10;;;;;;;;;;5013337;28;20057;-79
2022/01/31 07:43:05;;;;;;;9.93;2.70;;;;;;;;;;5015013;28;20037;-78
2022/01/31 07:45:30;;;;;;;9.60;3.13;;;;;;;;;;5012758;28;20018;-78
2022/01/31 07:47:55;;;;;;;8.68;3.10;;;;;;;;;;5015571;28;20105;-79
2022/01/31 07:50:20;;;;;;;8.52;2.70;;;;;;;;;;5013214;28;20022;-78
2022/01/31 07:52:46;;;;;;;9.02;3.20;;;;;;;;;;5012793;28;20054;-77
2022/01/31 07:55:12;;;;;;;9.38;2.88;;;;;;;;;;5012786;28;20030;-79
2022/01/31 07:57:38;;;;;;;7.13;2.85;;;;;;;;;;5014273;28;20022;-78
2022/01/31 08:00:04;;;;;;;7.82;2.78;;;;;;;;;;5017918;28;20052;-78
2022/01/31 08:02:29;;;;;;;8.48;2.65;;;;;;;;;;5013876;28;20042;-79
2022/01/31 08:04:54;;;;;;;8.27;2.88;;;;;;;;;;5014074;28;20036;-78
2022/01/31 08:07:20;;;;;;;5.72;2.92;;;;;;;;;;5012503;28;20037;-79
2022/01/31 08:09:45;;;;;;;8.75;2.83;;;;;;;;;;5012405;28;20032;-78
2022/01/31 08:12:10;;;;;;;8.20;2.75;;;;;;;;;;5012182;28;20109;-79
2022/01/31 08:14:36;;;;;;;10.48;2.50;;;;;;;;;;5013007;28;20460;-78
2022/01/31 08:17:02;;;;;;;9.27;3.08;;;;;;;;;;5012103;28;20104;-78
2022/01/31 08:19:27;;;;;;;7.13;3.17;;;;;;;;;;5012027;28;20101;-77
2022/01/31 08:21:54;;;;;;;6.45;2.65;;;;;;;;;;5012380;28;20057;-78
2022/01/31 08:24:19;;;;;;;6.03;2.33;;;;;;;;;;5012863;28;20030;-79
2022/01/31 08:26:44;;;;;;;7.60;2.95;;;;;;;;;;5011455;28;20025;-78
2022/01/31 08:29:28;;;;;;;7.47;2.45;;;;;;;;;;5011370;28;20087;-79
2022/01/31 08:31:57;;;;;;;7.15;3.00;;;;;;;;;;5012445;28;20040;-78
2022/01/31 08:35:47;;;;;;;4.35;2.30;;;;;;;;;;5012197;28;20022;-80
2022/01/31 08:37:08;;;;;;;8.15;2.85;;;;;;;;;;5007341;28;20038;-78
2022/01/31 08:39:33;;;;;;;5.80;2.97;;;;;;;;;;5014788;28;20052;-78
2022/01/31 08:41:58;;;;;;;6.80;3.38;;;;;;;;;;5013087;28;20173;-80
2022/01/31 08:44:24;;;;;;;7.88;3.50;;;;;;;;;;5019181;28;20017;-79
2022/01/31 08:46:50;;;;;;;6.22;3.30;;;;;;;;;;5019689;28;20049;-81
2022/01/31 08:49:16;;;;;;;9.07;3.70;;;;;;;;;;5022775;28;20029;-79
2022/01/31 08:51:42;;;;;;;7.65;3.20;;;;;;;;;;5011842;28;20052;-79
2022/01/31 08:54:07;;;;;;;11.55;3.63;;;;;;;;;;5011875;28;20057;-80
2022/01/31 08:56:40;;;;;;;9.23;3.38;;;;;;;;;;5011768;28;20022;-79
2022/01/31 08:59:07;;;;;;;10.90;3.78;;;;;;;;;;5011078;28;20041;-80
2022/01/31 09:01:32;;;;;;;6.88;3.50;;;;;;;;;;5011875;28;20489;-78
2022/01/31 09:04:01;;;;;;;9.15;3.60;;;;;;;;;;5011305;28;20029;-80
2022/01/31 09:06:32;;;;;;;7.05;3.15;;;;;;;;;;5011510;28;20029;-81
2022/01/31 09:08:57;;;;;;;6.40;3.45;;;;;;;;;;5011518;28;20022;-80
2022/01/31 09:11:23;;;;;;;5.82;3.25;;;;;;;;;;5011926;28;20026;-78
2022/01/31 09:13:49;;;;;;;8.98;3.65;;;;;;;;;;5011684;28;20068;-79
2022/01/31 09:16:14;;;;;;;6.45;3.40;;;;;;;;;;5011067;28;20021;-77
2022/01/31 09:18:39;;;;;;;6.80;3.63;;;;;;;;;;5011108;28;20382;-78
2022/01/31 09:21:04;;;;;;;7.50;3.80;;;;;;;;;;5011453;28;20468;-79
2022/01/31 09:23:30;;;;;;;5.63;3.20;;;;;;;;;;5010957;28;20404;-79
2022/01/31 09:25:55;;;;;;;7.78;3.63;;;;;;;;;;5011139;28;20098;-77
2022/01/31 09:28:20;;;;;;;8.60;3.30;;;;;;;;;;5011070;28;20029;-77
2022/01/31 09:30:47;;;;;;;6.93;3.20;;;;;;;;;;5013557;28;20676;-77
2022/01/31 09:33:13;;;;;;;9.00;3.55;;;;;;;;;;5011437;28;20040;-78
2022/01/31 09:35:38;;;;;;;5.63;3.13;;;;;;;;;;5011095;28;20033;-76
2022/01/31 09:38:04;;;;;;;6.65;3.03;;;;;;;;;;5010817;28;20392;-78
2022/01/31 09:40:30;;;;;;;6.60;3.30;;;;;;;;;;5010937;28;20480;-78
2022/01/31 09:43:05;;;;;;;6.93;3.30;;;;;;;;;;5010816;28;20037;-79
2022/01/31 09:45:49;;;;;;;5.50;3.42;;;;;;;;;;5010848;28;20116;-79
2022/01/31 09:48:33;;;;;;;6.47;3.40;;;;;;;;;;5013903;28;20033;-79
2022/01/31 09:51:00;;;;;;;4.88;3.10;;;;;;;;;;5010602;28;20112;-80
2022/01/31 09:53:25;;;;;;;4.35;2.95;;;;;;;;;;5011192;28;20045;-78
2022/01/31 09:55:52;;;;;;;6.03;2.90;;;;;;;;;;5008775;28;20033;-78
2022/01/31 09:58:18;;;;;;;7.38;3.13;;;;;;;;;;5013988;28;20100;-78
2022/01/31 10:00:43;;;;;;;6.22;2.92;;;;;;;;;;5014317;28;20046;-79
2022/01/31 10:03:09;;;;;;;6.18;3.20;;;;;;;;;;5011521;28;20034;-78
2022/01/31 10:05:34;;;;;;;6.35;3.10;;;;;;;;;;5010040;28;20067;-78
2022/01/31 10:08:08;;;;;;;5.28;3.03;;;;;;;;;;5010348;28;20026;-78
2022/01/31 10:10:39;;;;;;;5.07;2.60;;;;;;;;;;5009187;28;20029;-78
2022/01/31 10:18:59;;;;;;;4.78;2.15;;;;;;;;;;5010076;28;20167;-78
2022/01/31 10:21:25;;;;;;;4.45;2.40;;;;;;;;;;5012733;28;20021;-79
2022/01/31 10:23:50;;;;;;;7.10;2.40;;;;;;;;;;5011067;28;20022;-78
2022/01/31 10:26:27;;;;;;;6.07;2.30;;;;;;;;;;5009718;28;20014;-78
2022/01/31 10:29:07;;;;;;;5.82;2.70;;;;;;;;;;5009734;28;20032;-79
2022/01/31 10:31:32;;;;;;;3.33;1.95;;;;;;;;;;5010393;28;20057;-79
2022/01/31 10:34:12;;;;;;;3.85;2.20;;;;;;;;;;5009669;28;20691;-78
2022/01/31 10:36:38;;;;;;;2.63;1.70;;;;;;;;;;5009425;28;20037;-79
2022/01/31 10:39:12;;;;;;;2.90;1.98;;;;;;;;;;5009574;28;20026;-78
2022/01/31 10:44:58;;;;;;;3.15;1.65;;;;;;;;;;5010557;28;20032;-79
2022/01/31 10:53:05;;;;;;;3.67;1.75;;;;;;;;;;5009036;28;20056;-79
2022/01/31 10:55:30;;;;;;;2.70;1.35;;;;;;;;;;5009409;28;20037;-78
2022/01/31 10:58:09;;;;;;;3.15;1.42;;;;;;;;;;5009341;28;20022;-78
2022/01/31 11:00:39;;;;;;;2.60;1.42;;;;;;;;;;5008948;28;20042;-78
2022/01/31 11:03:23;;;;;;;2.33;1.40;;;;;;;;;;5009509;28;20029;-79
2022/01/31 11:05:51;;;;;;;1.88;1.35;;;;;;;;;;5009483;28;20112;-79
2022/01/31 11:08:17;;;;;;;8.07;3.28;;;;;;;;;;5003146;28;20030;-78
2022/01/31 11:10:42;;;;;;;2.65;1.63;;;;;;;;;;5002795;28;20049;-78
2022/01/31 11:13:08;;;;;;;3.40;1.70;;;;;;;;;;5012595;28;20401;-79
2022/01/31 11:15:33;;;;;;;2.42;1.60;;;;;;;;;;5009367;28;20030;-78
2022/01/31 11:18:00;;;;;;;2.30;1.50;;;;;;;;;;5009229;28;20076;-80
2022/01/31 11:20:25;;;;;;;4.43;1.88;;;;;;;;;;5008950;28;20040;-78
2022/01/31 11:22:56;;;;;;;3.92;1.70;;;;;;;;;;5009484;28;20037;-81
2022/01/31 11:25:23;;;;;;;3.75;1.55;;;;;;;;;;5009178;28;20076;-80
2022/01/31 11:27:52;;;;;;;2.65;1.52;;;;;;;;;;5008880;28;20029;-79
2022/01/31 11:30:18;;;;;;;3.70;1.50;;;;;;;;;;5012160;28;20046;-79
2022/01/31 11:32:45;;;;;;;5.00;1.50;;;;;;;;;;5015053;28;20038;-78
2022/01/31 11:35:10;;;;;;;3.80;1.55;;;;;;;;;;5009148;28;20022;-78
2022/01/31 11:37:36;;;;;;;3.10;1.60;;;;;;;;;;5009219;28;20832;-80
2022/01/31 11:40:03;;;;;;;2.70;1.33;;;;;;;;;;5008807;28;21879;-79
2022/01/31 11:42:29;;;;;;;2.60;1.27;;;;;;;;;;5008489;28;20333;-79
2022/01/31 11:45:01;;;;;;;4.13;1.10;;;;;;;;;;5009330;28;20021;-80
2022/01/31 11:47:28;;;;;;;3.10;1.15;;;;;;;;;;5009303;28;20385;-79
2022/01/31 11:50:00;;;;;;;2.85;0.95;;;;;;;;;;5008938;28;20105;-79
2022/01/31 11:52:29;;;;;;;1.40;0.77;;;;;;;;;;5004416;28;20417;-79
2022/01/31 11:54:56;;;;;;;2.53;0.90;;;;;;;;;;5009501;28;20080;-79
2022/01/31 11:57:29;;;;;;;0.85;0.70;;;;;;;;;;5009979;28;20033;-79
2022/01/31 12:00:15;;;;;;;3.33;0.95;;;;;;;;;;5013205;28;20033;-78
2022/01/31 12:02:50;;;;;;;0.73;0.70;;;;;;;;;;5008698;28;20046;-78
2022/01/31 12:05:22;;;;;;;2.10;0.60;;;;;;;;;;5014595;28;20057;-80
2022/01/31 12:07:48;;;;;;;1.67;0.55;;;;;;;;;;5012674;28;20487;-78
2022/01/31 12:10:21;;;;;;;1.50;0.80;;;;;;;;;;5012467;28;20113;-79
2022/01/31 12:13:25;;;;;;;1.30;0.70;;;;;;;;;;5012130;28;20552;-78
2022/01/31 12:24:05;;;;;;;1.60;0.80;;;;;;;;;;5009747;28;20053;-79
2022/01/31 12:26:39;;;;;;;0.82;0.70;;;;;;;;;;5012353;28;20024;-77
2022/01/31 12:29:15;;;;;;;1.88;0.80;;;;;;;;;;5012440;28;20435;-78
2022/01/31 12:31:45;;;;;;;1.42;0.80;;;;;;;;;;5010421;28;20026;-79
2022/01/31 12:34:31;;;;;;;2.10;0.88;;;;;;;;;;5012267;28;20420;-78
2022/01/31 12:36:58;;;;;;;2.63;0.90;;;;;;;;;;5012546;28;20042;-78
2022/01/31 12:39:37;;;;;;;3.08;1.10;;;;;;;;;;5016347;28;20022;-78
2022/01/31 12:42:31;;;;;;;2.80;1.02;;;;;;;;;;5022980;28;20044;-79
2022/01/31 12:44:56;;;;;;;2.53;1.00;;;;;;;;;;5021013;28;20034;-82
2022/01/31 12:47:21;;;;;;;2.40;0.90;;;;;;;;;;5012336;28;20034;-78
2022/01/31 12:50:06;;;;;;;1.75;0.80;;;;;;;;;;5015150;28;20037;-84
2022/01/31 12:52:34;;;;;;;1.48;0.88;;;;;;;;;;5006148;28;20084;-78
2022/01/31 12:55:08;;;;;;;2.28;1.00;;;;;;;;;;5013820;28;20018;-79
2022/01/31 12:57:33;;;;;;;2.10;1.10;;;;;;;;;;5017123;28;20037;-81
2022/01/31 12:59:58;;;;;;;2.05;1.00;;;;;;;;;;5012112;28;20021;-78
2022/01/31 13:02:23;;;;;;;2.80;1.10;;;;;;;;;;5012032;28;20403;-80
2022/01/31 13:04:48;;;;;;;2.88;1.10;;;;;;;;;;5011268;28;20014;-80
2022/01/31 13:07:15;;;;;;;3.42;1.13;;;;;;;;;;5005764;28;20022;-79
2022/01/31 13:09:43;;;;;;;2.00;0.80;;;;;;;;;;5009624;28;20014;-80
2022/01/31 13:12:16;;;;;;;3.45;0.90;;;;;;;;;;5010039;28;20441;-79
2022/01/31 13:14:48;;;;;;;1.55;0.90;;;;;;;;;;5010392;28;20048;-79
2022/01/31 13:17:18;;;;;;;2.20;1.00;;;;;;;;;;5009604;28;20025;-80
2022/01/31 13:19:48;;;;;;;2.08;1.00;;;;;;;;;;5004840;28;20034;-82
2022/01/31 13:22:14;;;;;;;;;;;;;;;;;;5003611;28;20082;-80
2022/01/31 13:24:41;;;;;;;1.45;0.90;;;;;;;;;;5009446;28;19909;-80
2022/01/31 13:27:08;;;;;;;1.70;0.98;;;;;;;;;;5008276;28;20033;-80
2022/01/31 13:29:34;;;;;;;1.88;1.05;;;;;;;;;;5010734;28;20420;-83
2022/01/31 13:31:59;;;;;;;2.70;0.88;;;;;;;;;;5011197;28;20049;-81
2022/01/31 13:34:34;;;;;;;3.33;0.90;;;;;;;;;;5011573;28;20054;-81
2022/01/31 13:36:59;;;;;;;1.80;0.90;;;;;;;;;;5009420;28;20037;-81
2022/01/31 13:39:24;;;;;;;1.17;0.90;;;;;;;;;;5010813;28;20041;-81
2022/01/31 13:41:50;;;;;;;1.70;0.80;;;;;;;;;;5009805;28;20038;-79
2022/01/31 13:44:15;;;;;;;4.82;0.90;;;;;;;;;;5011327;28;20461;-81
2022/01/31 13:46:48;;;;;;;2.25;0.80;;;;;;;;;;5014771;28;20073;-81
2022/01/31 13:49:18;;;;;;;3.20;1.02;;;;;;;;;;5010674;28;20034;-80
2022/01/31 13:51:48;;;;;;;3.05;0.90;;;;;;;;;;5011111;28;20080;-81
2022/01/31 13:54:22;;;;;;;3.92;1.00;;;;;;;;;;5012528;28;20098;-79
2022/01/31 13:56:55;;;;;;;2.13;0.93;;;;;;;;;;5022933;28;20061;-80
2022/01/31 13:59:20;;;;;;;1.90;1.00;;;;;;;;;;5016663;28;20070;-81
2022/01/31 14:01:46;;;;;;;2.75;0.90;;;;;;;;;;5011649;28;20059;-80
2022/01/31 14:04:12;;;;;;;2.47;1.13;;;;;;;;;;5014661;28;20621;-82
2022/01/31 14:06:38;;;;;;;1.45;0.82;;;;;;;;;;5007061;28;20033;-80
2022/01/31 14:09:06;;;;;;;1.70;0.90;;;;;;;;;;5010408;28;20428;-82
2022/01/31 14:11:45;;;;;;;3.33;1.00;;;;;;;;;;5010532;28;20029;-80
2022/01/31 14:14:11;;;;;;;2.43;1.20;;;;;;;;;;5011261;28;20030;-81
2022/01/31 14:16:37;;;;;;;3.10;0.77;;;;;;;;;;5010644;28;20639;-81
2022/01/31 14:19:04;;;;;;;1.70;0.82;;;;;;;;;;5010122;28;20029;-80
2022/01/31 14:21:29;;;;;;;2.83;1.08;;;;;;;;;;5010331;28;20033;-80
2022/01/31 14:23:55;;;;;;;3.40;0.90;;;;;;;;;;5009967;28;20342;-81
2022/01/31 14:26:32;;;;;;;2.47;0.88;;;;;;;;;;5007965;28;20022;-80
2022/01/31 14:28:57;;;;;;;2.00;0.80;;;;;;;;;;5009922;28;20487;-81
2022/01/31 14:31:33;;;;;;;2.78;0.95;;;;;;;;;;5008559;28;20026;-81
2022/01/31 14:34:06;;;;;;;1.85;0.90;;;;;;;;;;5003704;28;20026;-80
2022/01/31 14:36:35;;;;;;;2.28;0.85;;;;;;;;;;5021286;28;20057;-80
2022/01/31 14:39:14;;;;;;;2.28;0.90;;;;;;;;;;5011232;28;20022;-81
2022/01/31 14:47:18;;;;;;;2.67;0.90;;;;;;;;;;5009758;28;20092;-81
2022/01/31 14:49:48;;;;;;;3.38;1.13;;;;;;;;;;5009380;28;20539;-81
2022/01/31 14:52:13;;;;;;;1.88;0.80;;;;;;;;;;5010591;28;20191;-80
2022/01/31 14:54:39;;;;;;;2.20;1.00;;;;;;;;;;5009886;28;20057;-81
2022/01/31 14:57:05;;;;;;;3.80;1.30;;;;;;;;;;5010592;28;20022;-81
2022/01/31 14:59:30;;;;;;;3.42;1.20;;;;;;;;;;5010218;28;20029;-81
2022/01/31 15:01:55;;;;;;;1.80;0.98;;;;;;;;;;5009885;28;20452;-81
2022/01/31 15:04:21;;;;;;;3.88;1.00;;;;;;;;;;5009474;28;20663;-82
2022/01/31 15:06:47;;;;;;;3.10;0.93;;;;;;;;;;5009481;28;20412;-80
2022/01/31 15:09:12;;;;;;;1.83;1.00;;;;;;;;;;5009689;28;20171;-80